sensor_id;sensor_type;location;lat;lon;timestamp;temperature;humidity
6439;DHT22;3252;52.540;13.290;2024-03-23T00:54:58;21.00;95.00
6439;DHT22;3252;52.540;13.290;2024-03-23T00:57:00;21.00;95.00
6439;DHT22;3252;52.540;13.290;2024-03-23T00:59:01;21.00;95.00
6439;DHT22;3252;52.540;13.290;2024-03-23T01:01:02;21.00;95.00
6439;DHT22;3252;52.540;13.290;2024-03-23T01:03:05;21.00;95.00
6439;DHT22;3252;52.540;13.290;2024-03-23T01:05:06;21.00;95.00
6439;DHT22;3252;52.540;13.290;2024-03-23T01:07:08;21.00;95.00
6439;DHT22;3252;52.540;13.290;2024-03-23T01:09:11;21.00;95.00
6439;DHT22;3252;52.540;13.290;2024-03-23T01:11:14;21.00;95.00
6439;DHT22;3252;52.540;13.290;2024-03-23T01:13:15;21.00;95.00
6439;DHT22;3252;52.540;13.290;2024-03-23T01:15:21;21.00;95.00
6439;DHT22;3252;52.540;13.290;2024-03-23T01:17:22;21.00;95.00
6439;DHT22;3252;52.540;13.290;2024-03-23T01:19:24;21.00;95.00
6439;DHT22;3252;52.540;13.290;2024-03-23T01:21:25;20.90;95.00
6439;DHT22;3252;52.540;13.290;2024-03-23T01:23:27;21.00;95.00
6439;DHT22;3252;52.540;13.290;2024-03-23T01:25:29;20.90;95.00
6439;DHT22;3252;52.540;13.290;2024-03-23T01:27:31;20.90;95.00
6439;DHT22;3252;52.540;13.290;2024-03-23T01:29:32;20.90;95.30
6439;DHT22;3252;52.540;13.290;2024-03-23T01:31:34;20.90;95.00
6439;DHT22;3252;52.540;13.290;2024-03-23T01:33:35;20.90;95.00
6439;DHT22;3252;52.540;13.290;2024-03-23T01:35:37;20.90;95.00
6439;DHT22;3252;52.540;13.290;2024-03-23T01:37:38;20.90;95.00
6439;DHT22;3252;52.540;13.290;2024-03-23T01:39:40;20.90;95.00
6439;DHT22;3252;52.540;13.290;2024-03-23T01:41:42;20.90;95.00
6439;DHT22;3252;52.540;13.290;2024-03-23T01:43:44;20.90;95.00
6439;DHT22;3252;52.540;13.290;2024-03-23T01:45:45;20.90;95.00
6439;DHT22;3252;52.540;13.290;2024-03-23T01:47:47;20.90;95.00
6439;DHT22;3252;52.540;13.290;2024-03-23T01:49:49;20.90;95.00
6439;DHT22;3252;52.540;13.290;2024-03-23T01:51:50;20.80;95.00
6439;DHT22;3252;52.540;13.290;2024-03-23T01:53:53;20.80;95.00
6439;DHT22;3252;52.540;13.290;2024-03-23T01:55:55;20.90;95.00
6439;DHT22;3252;52.540;13.290;2024-03-23T01:57:59;20.80;95.00
6439;DHT22;3252;52.540;13.290;2024-03-23T02:00:00;20.80;95.00
6439;DHT22;3252;52.540;13.290;2024-03-23T02:02:03;20.80;95.00
6439;DHT22;3252;52.540;13.290;2024-03-23T02:04:04;20.80;95.00
6439;DHT22;3252;52.540;13.290;2024-03-23T02:06:06;20.80;95.00
6439;DHT22;3252;52.540;13.290;2024-03-23T02:08:09;20.80;95.00
6439;DHT22;3252;52.540;13.290;2024-03-23T02:10:11;20.80;95.00
6439;DHT22;3252;52.540;13.290;2024-03-23T02:12:13;20.80;95.00
6439;DHT22;3252;52.540;13.290;2024-03-23T02:14:17;20.80;95.00
6439;DHT22;3252;52.540;13.290;2024-03-23T02:16:18;20.70;94.90
6439;DHT22;3252;52.540;13.290;2024-03-23T02:18:20;20.70;95.00
6439;DHT22;3252;52.540;13.290;2024-03-23T02:20:21;20.70;95.00
6439;DHT22;3252;52.540;13.290;2024-03-23T02:22:23;20.70;95.00
6439;DHT22;3252;52.540;13.290;2024-03-23T02:24:25;20.80;95.10
6439;DHT22;3252;52.540;13.290;2024-03-23T02:26:27;20.70;95.00
6439;DHT22;3252;52.540;13.290;2024-03-23T02:28:30;20.70;95.00
6439;DHT22;3252;52.540;13.290;2024-03-23T02:30:32;20.70;95.00
6439;DHT22;3252;52.540;13.290;2024-03-23T02:32:33;20.70;95.00
6439;DHT22;3252;52.540;13.290;2024-03-23T02:34:35;20.70;95.00
6439;DHT22;3252;52.540;13.290;2024-03-23T02:36:36;20.70;95.00
6439;DHT22;3252;52.540;13.290;2024-03-23T02:38:38;20.70;95.10
6439;DHT22;3252;52.540;13.290;2024-03-23T02:40:40;20.70;95.10
6439;DHT22;3252;52.540;13.290;2024-03-23T02:42:42;20.70;95.10
6439;DHT22;3252;52.540;13.290;2024-03-23T02:44:43;20.60;95.00
6439;DHT22;3252;52.540;13.290;2024-03-23T02:46:45;20.60;95.00
6439;DHT22;3252;52.540;13.290;2024-03-23T02:48:48;20.70;95.10
6439;DHT22;3252;52.540;13.290;2024-03-23T02:50:50;20.60;95.00
6439;DHT22;3252;52.540;13.290;2024-03-23T02:52:51;20.60;95.00
6439;DHT22;3252;52.540;13.290;2024-03-23T02:54:53;20.60;95.00
6439;DHT22;3252;52.540;13.290;2024-03-23T02:56:55;20.60;95.00
6439;DHT22;3252;52.540;13.290;2024-03-23T02:58:57;20.60;95.00
6439;DHT22;3252;52.540;13.290;2024-03-23T03:00:58;20.60;95.00
6439;DHT22;3252;52.540;13.290;2024-03-23T03:03:00;20.60;95.00
6439;DHT22;3252;52.540;13.290;2024-03-23T03:05:01;20.60;95.00
6439;DHT22;3252;52.540;13.290;2024-03-23T03:07:05;20.60;95.00
6439;DHT22;3252;52.540;13.290;2024-03-23T03:09:07;20.60;95.00
6439;DHT22;3252;52.540;13.290;2024-03-23T03:11:08;20.60;95.00
6439;DHT22;3252;52.540;13.290;2024-03-23T03:13:11;20.60;95.00
6439;DHT22;3252;52.540;13.290;2024-03-23T03:15:13;20.60;95.00
6439;DHT22;3252;52.540;13.290;2024-03-23T03:17:14;20.60;95.00
6439;DHT22;3252;52.540;13.290;2024-03-23T03:19:16;20.60;95.00
6439;DHT22;3252;52.540;13.290;2024-03-23T03:21:18;20.50;95.00
6439;DHT22;3252;52.540;13.290;2024-03-23T03:23:20;20.50;95.00
6439;DHT22;3252;52.540;13.290;2024-03-23T03:25:21;20.50;95.00
6439;DHT22;3252;52.540;13.290;2024-03-23T03:27:23;20.50;95.00
6439;DHT22;3252;52.540;13.290;2024-03-23T03:29:26;20.50;95.00
6439;DHT22;3252;52.540;13.290;2024-03-23T03:31:34;20.50;95.00
6439;DHT22;3252;52.540;13.290;2024-03-23T03:33:35;20.50;95.00
6439;DHT22;3252;52.540;13.290;2024-03-23T03:35:37;20.50;95.00
6439;DHT22;3252;52.540;13.290;2024-03-23T03:37:38;20.50;95.00
6439;DHT22;3252;52.540;13.290;2024-03-23T03:39:40;20.50;95.00
6439;DHT22;3252;52.540;13.290;2024-03-23T03:41:42;20.50;95.00
6439;DHT22;3252;52.540;13.290;2024-03-23T03:43:44;20.50;95.00
6439;DHT22;3252;52.540;13.290;2024-03-23T03:45:52;20.50;95.00
6439;DHT22;3252;52.540;13.290;2024-03-23T03:47:54;20.50;95.00
6439;DHT22;3252;52.540;13.290;2024-03-23T03:49:55;20.50;95.00
6439;DHT22;3252;52.540;13.290;2024-03-23T03:51:57;20.50;95.00
6439;DHT22;3252;52.540;13.290;2024-03-23T03:53:58;20.50;95.00
6439;DHT22;3252;52.540;13.290;2024-03-23T03:56:01;20.50;95.00
6439;DHT22;3252;52.540;13.290;2024-03-23T03:58:03;20.50;95.00
6439;DHT22;3252;52.540;13.290;2024-03-23T04:00:06;20.50;95.00
6439;DHT22;3252;52.540;13.290;2024-03-23T04:02:13;20.50;95.00
6439;DHT22;3252;52.540;13.290;2024-03-23T04:04:14;20.50;95.30
6439;DHT22;3252;52.540;13.290;2024-03-23T04:06:20;20.50;95.00
6439;DHT22;3252;52.540;13.290;2024-03-23T04:08:21;20.50;95.00
6439;DHT22;3252;52.540;13.290;2024-03-23T04:10:22;20.50;95.00
6439;DHT22;3252;52.540;13.290;2024-03-23T04:12:25;20.50;95.00
6439;DHT22;3252;52.540;13.290;2024-03-23T04:14:26;20.50;95.00
6439;DHT22;3252;52.540;13.290;2024-03-23T04:16:29;20.50;95.00
6439;DHT22;3252;52.540;13.290;2024-03-23T04:18:31;20.50;95.00
6439;DHT22;3252;52.540;13.290;2024-03-23T04:20:34;20.50;95.00
6439;DHT22;3252;52.540;13.290;2024-03-23T04:22:35;20.40;95.00
6439;DHT22;3252;52.540;13.290;2024-03-23T04:24:37;20.40;95.00
6439;DHT22;3252;52.540;13.290;2024-03-23T04:26:41;20.40;95.00
6439;DHT22;3252;52.540;13.290;2024-03-23T04:28:42;20.50;95.00
6439;DHT22;3252;52.540;13.290;2024-03-23T04:30:44;20.40;94.90
6439;DHT22;3252;52.540;13.290;2024-03-23T04:32:45;20.40;95.00
6439;DHT22;3252;52.540;13.290;2024-03-23T04:34:49;20.50;95.00
6439;DHT22;3252;52.540;13.290;2024-03-23T04:36:50;20.40;94.90
6439;DHT22;3252;52.540;13.290;2024-03-23T04:38:53;20.40;95.00
6439;DHT22;3252;52.540;13.290;2024-03-23T04:40:55;20.40;94.90
6439;DHT22;3252;52.540;13.290;2024-03-23T04:42:57;20.40;95.00
6439;DHT22;3252;52.540;13.290;2024-03-23T04:44:58;20.40;95.20
6439;DHT22;3252;52.540;13.290;2024-03-23T04:47:00;20.40;94.90
6439;DHT22;3252;52.540;13.290;2024-03-23T04:49:01;20.40;94.90
6439;DHT22;3252;52.540;13.290;2024-03-23T04:51:06;20.40;94.90
6439;DHT22;3252;52.540;13.290;2024-03-23T04:53:07;20.40;94.90
6439;DHT22;3252;52.540;13.290;2024-03-23T04:55:09;20.40;95.00
6439;DHT22;3252;52.540;13.290;2024-03-23T04:57:10;20.40;95.00
6439;DHT22;3252;52.540;13.290;2024-03-23T04:59:12;20.40;94.90
6439;DHT22;3252;52.540;13.290;2024-03-23T05:01:14;20.40;94.90
6439;DHT22;3252;52.540;13.290;2024-03-23T05:03:17;20.40;95.00
6439;DHT22;3252;52.540;13.290;2024-03-23T05:05:18;20.40;94.90
6439;DHT22;3252;52.540;13.290;2024-03-23T05:07:22;20.40;94.90
6439;DHT22;3252;52.540;13.290;2024-03-23T05:09:23;20.40;94.90
6439;DHT22;3252;52.540;13.290;2024-03-23T05:11:24;20.30;94.90
6439;DHT22;3252;52.540;13.290;2024-03-23T05:13:25;20.40;94.90
6439;DHT22;3252;52.540;13.290;2024-03-23T05:15:28;20.30;94.90
6439;DHT22;3252;52.540;13.290;2024-03-23T05:17:31;20.30;94.90
6439;DHT22;3252;52.540;13.290;2024-03-23T05:19:33;20.30;94.90
6439;DHT22;3252;52.540;13.290;2024-03-23T05:21:34;20.40;94.90
6439;DHT22;3252;52.540;13.290;2024-03-23T05:23:37;20.30;94.90
6439;DHT22;3252;52.540;13.290;2024-03-23T05:25:38;20.40;95.00
6439;DHT22;3252;52.540;13.290;2024-03-23T05:27:40;20.40;94.90
6439;DHT22;3252;52.540;13.290;2024-03-23T05:29:41;20.30;94.90
6439;DHT22;3252;52.540;13.290;2024-03-23T05:31:43;20.30;94.90
6439;DHT22;3252;52.540;13.290;2024-03-23T05:33:44;20.30;94.90
6439;DHT22;3252;52.540;13.290;2024-03-23T05:35:56;20.30;94.90
6439;DHT22;3252;52.540;13.290;2024-03-23T05:37:57;20.30;94.90
6439;DHT22;3252;52.540;13.290;2024-03-23T05:40:01;20.30;94.90
6439;DHT22;3252;52.540;13.290;2024-03-23T05:42:02;20.30;94.90
6439;DHT22;3252;52.540;13.290;2024-03-23T05:44:04;20.30;94.90
6439;DHT22;3252;52.540;13.290;2024-03-23T05:46:05;20.30;94.90
6439;DHT22;3252;52.540;13.290;2024-03-23T05:48:08;20.30;94.90
6439;DHT22;3252;52.540;13.290;2024-03-23T05:50:09;20.30;94.90
6439;DHT22;3252;52.540;13.290;2024-03-23T05:52:13;20.30;94.90
6439;DHT22;3252;52.540;13.290;2024-03-23T05:54:14;20.30;94.90
6439;DHT22;3252;52.540;13.290;2024-03-23T05:56:19;20.30;94.90
6439;DHT22;3252;52.540;13.290;2024-03-23T05:58:20;20.30;94.80
6439;DHT22;3252;52.540;13.290;2024-03-23T06:00:22;20.30;94.80
6439;DHT22;3252;52.540;13.290;2024-03-23T06:02:27;20.30;94.80
6439;DHT22;3252;52.540;13.290;2024-03-23T06:04:29;20.30;94.80
6439;DHT22;3252;52.540;13.290;2024-03-23T06:06:29;20.30;94.80
6439;DHT22;3252;52.540;13.290;2024-03-23T06:08:31;20.30;94.80
6439;DHT22;3252;52.540;13.290;2024-03-23T06:10:32;20.30;94.80
6439;DHT22;3252;52.540;13.290;2024-03-23T06:12:36;20.30;94.80
6439;DHT22;3252;52.540;13.290;2024-03-23T06:14:37;20.30;94.80
6439;DHT22;3252;52.540;13.290;2024-03-23T06:16:38;20.30;94.80
6439;DHT22;3252;52.540;13.290;2024-03-23T06:18:40;20.30;94.80
6439;DHT22;3252;52.540;13.290;2024-03-23T06:20:41;20.30;94.80
6439;DHT22;3252;52.540;13.290;2024-03-23T06:22:43;20.30;94.80
6439;DHT22;3252;52.540;13.290;2024-03-23T06:24:44;20.30;94.80
6439;DHT22;3252;52.540;13.290;2024-03-23T06:26:46;20.30;94.80
6439;DHT22;3252;52.540;13.290;2024-03-23T06:28:49;20.30;94.80
6439;DHT22;3252;52.540;13.290;2024-03-23T06:30:51;20.30;94.80
6439;DHT22;3252;52.540;13.290;2024-03-23T06:32:51;20.30;94.80
6439;DHT22;3252;52.540;13.290;2024-03-23T06:34:53;20.30;94.80
6439;DHT22;3252;52.540;13.290;2024-03-23T06:36:54;20.30;94.80
6439;DHT22;3252;52.540;13.290;2024-03-23T06:38:57;20.30;94.80
6439;DHT22;3252;52.540;13.290;2024-03-23T06:40:58;20.30;94.70
6439;DHT22;3252;52.540;13.290;2024-03-23T06:42:59;20.30;94.80
6439;DHT22;3252;52.540;13.290;2024-03-23T06:45:02;20.30;94.80
6439;DHT22;3252;52.540;13.290;2024-03-23T06:47:05;20.30;94.80
6439;DHT22;3252;52.540;13.290;2024-03-23T06:49:06;20.30;94.80
6439;DHT22;3252;52.540;13.290;2024-03-23T06:51:08;20.30;94.70
6439;DHT22;3252;52.540;13.290;2024-03-23T06:53:09;20.30;94.70
6439;DHT22;3252;52.540;13.290;2024-03-23T06:55:11;20.30;94.70
6439;DHT22;3252;52.540;13.290;2024-03-23T06:57:12;20.30;94.70
6439;DHT22;3252;52.540;13.290;2024-03-23T06:59:13;20.30;94.90
6439;DHT22;3252;52.540;13.290;2024-03-23T07:01:17;20.30;94.90
6439;DHT22;3252;52.540;13.290;2024-03-23T07:03:18;20.30;95.00
6439;DHT22;3252;52.540;13.290;2024-03-23T07:05:20;20.30;95.20
6439;DHT22;3252;52.540;13.290;2024-03-23T07:07:22;20.30;95.30
6439;DHT22;3252;52.540;13.290;2024-03-23T07:09:24;20.30;95.50
6439;DHT22;3252;52.540;13.290;2024-03-23T07:11:26;20.30;95.60
6439;DHT22;3252;52.540;13.290;2024-03-23T07:13:28;20.40;95.70
6439;DHT22;3252;52.540;13.290;2024-03-23T07:15:29;20.30;95.70
6439;DHT22;3252;52.540;13.290;2024-03-23T07:17:32;20.30;95.70
6439;DHT22;3252;52.540;13.290;2024-03-23T07:19:35;20.30;95.80
6439;DHT22;3252;52.540;13.290;2024-03-23T07:21:36;20.30;95.90
6439;DHT22;3252;52.540;13.290;2024-03-23T07:23:42;20.40;96.00
6439;DHT22;3252;52.540;13.290;2024-03-23T07:25:45;20.40;96.00
6439;DHT22;3252;52.540;13.290;2024-03-23T07:27:47;20.40;96.00
6439;DHT22;3252;52.540;13.290;2024-03-23T07:29:48;20.40;95.90
6439;DHT22;3252;52.540;13.290;2024-03-23T07:31:50;20.40;95.90
6439;DHT22;3252;52.540;13.290;2024-03-23T07:33:52;20.40;95.90
6439;DHT22;3252;52.540;13.290;2024-03-23T07:35:54;20.40;95.90
6439;DHT22;3252;52.540;13.290;2024-03-23T07:37:55;20.40;95.90
6439;DHT22;3252;52.540;13.290;2024-03-23T07:39:57;20.40;95.90
6439;DHT22;3252;52.540;13.290;2024-03-23T07:41:59;20.30;95.90
6439;DHT22;3252;52.540;13.290;2024-03-23T07:44:01;20.40;95.90
6439;DHT22;3252;52.540;13.290;2024-03-23T07:46:02;20.30;95.90
6439;DHT22;3252;52.540;13.290;2024-03-23T07:48:05;20.30;95.90
6439;DHT22;3252;52.540;13.290;2024-03-23T07:50:09;20.30;95.90
6439;DHT22;3252;52.540;13.290;2024-03-23T07:52:11;20.40;95.90
6439;DHT22;3252;52.540;13.290;2024-03-23T07:54:12;20.40;96.00
6439;DHT22;3252;52.540;13.290;2024-03-23T07:56:15;20.40;96.00
6439;DHT22;3252;52.540;13.290;2024-03-23T07:58:16;20.40;96.00
6439;DHT22;3252;52.540;13.290;2024-03-23T08:00:18;20.40;96.00
6439;DHT22;3252;52.540;13.290;2024-03-23T08:02:19;20.30;95.90
6439;DHT22;3252;52.540;13.290;2024-03-23T08:04:21;20.40;95.90
6439;DHT22;3252;52.540;13.290;2024-03-23T08:06:24;20.30;95.90
6439;DHT22;3252;52.540;13.290;2024-03-23T08:08:26;20.40;95.90
6439;DHT22;3252;52.540;13.290;2024-03-23T08:10:27;20.40;95.90
6439;DHT22;3252;52.540;13.290;2024-03-23T08:12:29;20.40;95.90
6439;DHT22;3252;52.540;13.290;2024-03-23T08:14:30;20.40;96.00
6439;DHT22;3252;52.540;13.290;2024-03-23T08:16:32;20.30;92.20
6439;DHT22;3252;52.540;13.290;2024-03-23T08:18:35;20.30;92.60
6439;DHT22;3252;52.540;13.290;2024-03-23T08:20:36;20.30;94.30
6439;DHT22;3252;52.540;13.290;2024-03-23T08:22:39;20.30;94.70
6439;DHT22;3252;52.540;13.290;2024-03-23T08:24:41;20.30;95.10
6439;DHT22;3252;52.540;13.290;2024-03-23T08:26:42;20.30;95.30
6439;DHT22;3252;52.540;13.290;2024-03-23T08:28:44;20.30;95.40
6439;DHT22;3252;52.540;13.290;2024-03-23T08:30:45;20.30;95.50
6439;DHT22;3252;52.540;13.290;2024-03-23T08:32:47;20.30;95.50
6439;DHT22;3252;52.540;13.290;2024-03-23T08:34:48;20.30;95.60
6439;DHT22;3252;52.540;13.290;2024-03-23T08:36:50;20.30;95.60
6439;DHT22;3252;52.540;13.290;2024-03-23T08:38:53;20.30;95.60
6439;DHT22;3252;52.540;13.290;2024-03-23T08:40:58;20.30;95.60
6439;DHT22;3252;52.540;13.290;2024-03-23T08:43:00;20.30;95.60
6439;DHT22;3252;52.540;13.290;2024-03-23T08:45:02;20.30;95.60
6439;DHT22;3252;52.540;13.290;2024-03-23T08:47:03;20.30;95.60
6439;DHT22;3252;52.540;13.290;2024-03-23T08:49:05;20.30;95.60
6439;DHT22;3252;52.540;13.290;2024-03-23T08:51:07;20.30;95.60
6439;DHT22;3252;52.540;13.290;2024-03-23T08:53:09;20.30;95.60
6439;DHT22;3252;52.540;13.290;2024-03-23T08:55:12;20.30;95.60
6439;DHT22;3252;52.540;13.290;2024-03-23T08:57:14;20.30;95.60
6439;DHT22;3252;52.540;13.290;2024-03-23T08:59:15;20.30;95.60
6439;DHT22;3252;52.540;13.290;2024-03-23T09:01:16;20.30;95.60
6439;DHT22;3252;52.540;13.290;2024-03-23T09:03:18;20.30;95.60
6439;DHT22;3252;52.540;13.290;2024-03-23T09:05:19;20.30;95.60
6439;DHT22;3252;52.540;13.290;2024-03-23T09:07:21;20.30;95.60
6439;DHT22;3252;52.540;13.290;2024-03-23T09:09:22;20.30;95.60
6439;DHT22;3252;52.540;13.290;2024-03-23T09:11:26;20.30;95.50
6439;DHT22;3252;52.540;13.290;2024-03-23T09:13:26;20.30;95.50
6439;DHT22;3252;52.540;13.290;2024-03-23T09:15:29;20.30;95.50
6439;DHT22;3252;52.540;13.290;2024-03-23T09:17:30;20.30;95.50
6439;DHT22;3252;52.540;13.290;2024-03-23T09:19:31;20.30;95.50
6439;DHT22;3252;52.540;13.290;2024-03-23T09:21:32;20.30;95.50
6439;DHT22;3252;52.540;13.290;2024-03-23T09:23:33;20.30;95.50
6439;DHT22;3252;52.540;13.290;2024-03-23T09:25:39;20.30;95.50
6439;DHT22;3252;52.540;13.290;2024-03-23T09:27:41;20.30;95.50
6439;DHT22;3252;52.540;13.290;2024-03-23T09:29:43;20.30;95.50
6439;DHT22;3252;52.540;13.290;2024-03-23T09:31:44;20.30;95.50
6439;DHT22;3252;52.540;13.290;2024-03-23T09:33:46;20.30;95.50
6439;DHT22;3252;52.540;13.290;2024-03-23T09:35:47;20.30;95.50
6439;DHT22;3252;52.540;13.290;2024-03-23T09:37:48;20.30;95.50
6439;DHT22;3252;52.540;13.290;2024-03-23T09:39:50;20.30;95.50
6439;DHT22;3252;52.540;13.290;2024-03-23T09:41:51;20.30;95.50
6439;DHT22;3252;52.540;13.290;2024-03-23T09:43:59;20.30;95.50
6439;DHT22;3252;52.540;13.290;2024-03-23T09:46:01;20.30;95.50
6439;DHT22;3252;52.540;13.290;2024-03-23T09:48:04;20.30;95.50
6439;DHT22;3252;52.540;13.290;2024-03-23T09:50:07;20.30;95.50
6439;DHT22;3252;52.540;13.290;2024-03-23T09:52:10;20.30;95.50
6439;DHT22;3252;52.540;13.290;2024-03-23T09:54:11;20.30;95.50
6439;DHT22;3252;52.540;13.290;2024-03-23T09:56:13;20.30;95.50
6439;DHT22;3252;52.540;13.290;2024-03-23T09:58:16;20.30;95.50
6439;DHT22;3252;52.540;13.290;2024-03-23T10:00:19;20.30;95.50
6439;DHT22;3252;52.540;13.290;2024-03-23T10:02:21;20.30;95.50
6439;DHT22;3252;52.540;13.290;2024-03-23T10:04:39;20.30;95.50
6439;DHT22;3252;52.540;13.290;2024-03-23T10:06:40;20.30;95.50
6439;DHT22;3252;52.540;13.290;2024-03-23T10:08:42;20.30;95.50
6439;DHT22;3252;52.540;13.290;2024-03-23T10:10:44;20.30;95.50
6439;DHT22;3252;52.540;13.290;2024-03-23T10:12:47;20.30;95.40
6439;DHT22;3252;52.540;13.290;2024-03-23T10:14:48;20.30;95.50
6439;DHT22;3252;52.540;13.290;2024-03-23T10:16:51;20.30;95.50
6439;DHT22;3252;52.540;13.290;2024-03-23T10:18:52;20.30;95.40
6439;DHT22;3252;52.540;13.290;2024-03-23T10:21:07;20.30;95.40
6439;DHT22;3252;52.540;13.290;2024-03-23T10:23:15;20.30;95.40
6439;DHT22;3252;52.540;13.290;2024-03-23T10:25:22;20.30;95.40
6439;DHT22;3252;52.540;13.290;2024-03-23T10:27:23;20.30;95.40
6439;DHT22;3252;52.540;13.290;2024-03-23T10:29:25;20.30;95.40
6439;DHT22;3252;52.540;13.290;2024-03-23T10:31:28;20.30;95.40
6439;DHT22;3252;52.540;13.290;2024-03-23T10:33:32;20.30;95.40
6439;DHT22;3252;52.540;13.290;2024-03-23T10:35:33;20.30;95.40
6439;DHT22;3252;52.540;13.290;2024-03-23T10:37:36;20.30;95.40
6439;DHT22;3252;52.540;13.290;2024-03-23T10:39:38;20.30;95.40
6439;DHT22;3252;52.540;13.290;2024-03-23T10:41:41;20.30;95.40
6439;DHT22;3252;52.540;13.290;2024-03-23T10:43:45;20.30;95.40
6439;DHT22;3252;52.540;13.290;2024-03-23T10:45:49;20.30;95.40
6439;DHT22;3252;52.540;13.290;2024-03-23T10:47:51;20.30;95.40
6439;DHT22;3252;52.540;13.290;2024-03-23T10:49:54;20.30;95.40
6439;DHT22;3252;52.540;13.290;2024-03-23T10:51:57;20.30;95.40
6439;DHT22;3252;52.540;13.290;2024-03-23T10:54:04;20.30;95.40
6439;DHT22;3252;52.540;13.290;2024-03-23T10:56:06;20.30;95.40
6439;DHT22;3252;52.540;13.290;2024-03-23T10:58:08;20.30;95.40
6439;DHT22;3252;52.540;13.290;2024-03-23T11:00:10;20.30;95.40
6439;DHT22;3252;52.540;13.290;2024-03-23T11:02:19;20.30;95.40
6439;DHT22;3252;52.540;13.290;2024-03-23T11:04:29;20.30;95.40
6439;DHT22;3252;52.540;13.290;2024-03-23T11:06:37;20.30;95.40
6439;DHT22;3252;52.540;13.290;2024-03-23T11:08:39;20.30;95.40
6439;DHT22;3252;52.540;13.290;2024-03-23T11:10:42;20.30;95.40
6439;DHT22;3252;52.540;13.290;2024-03-23T11:12:44;20.30;95.40
6439;DHT22;3252;52.540;13.290;2024-03-23T11:14:47;20.30;95.40
6439;DHT22;3252;52.540;13.290;2024-03-23T11:17:08;20.30;95.40
6439;DHT22;3252;52.540;13.290;2024-03-23T11:19:34;20.30;95.40
6439;DHT22;3252;52.540;13.290;2024-03-23T11:21:54;20.30;95.40
6439;DHT22;3252;52.540;13.290;2024-03-23T11:24:13;20.30;95.40
6439;DHT22;3252;52.540;13.290;2024-03-23T11:26:14;20.30;95.40
6439;DHT22;3252;52.540;13.290;2024-03-23T11:28:16;20.30;95.40
6439;DHT22;3252;52.540;13.290;2024-03-23T11:30:18;20.30;95.40
6439;DHT22;3252;52.540;13.290;2024-03-23T11:32:21;20.30;95.40
6439;DHT22;3252;52.540;13.290;2024-03-23T11:34:22;20.30;95.40
6439;DHT22;3252;52.540;13.290;2024-03-23T11:36:24;20.30;95.40
6439;DHT22;3252;52.540;13.290;2024-03-23T11:38:26;20.30;95.40
6439;DHT22;3252;52.540;13.290;2024-03-23T11:40:28;20.30;95.40
6439;DHT22;3252;52.540;13.290;2024-03-23T11:42:29;20.30;95.40
6439;DHT22;3252;52.540;13.290;2024-03-23T11:44:31;20.30;95.40
6439;DHT22;3252;52.540;13.290;2024-03-23T11:46:32;20.30;95.40
6439;DHT22;3252;52.540;13.290;2024-03-23T11:48:34;20.30;95.50
6439;DHT22;3252;52.540;13.290;2024-03-23T11:50:38;20.30;95.50
6439;DHT22;3252;52.540;13.290;2024-03-23T11:52:41;20.30;95.50
6439;DHT22;3252;52.540;13.290;2024-03-23T11:54:44;20.30;95.50
6439;DHT22;3252;52.540;13.290;2024-03-23T11:56:55;20.30;95.50
6439;DHT22;3252;52.540;13.290;2024-03-23T11:58:57;20.30;95.70
6439;DHT22;3252;52.540;13.290;2024-03-23T12:00:59;20.30;95.50
6439;DHT22;3252;52.540;13.290;2024-03-23T12:03:03;20.30;95.50
6439;DHT22;3252;52.540;13.290;2024-03-23T12:05:14;20.30;95.50
6439;DHT22;3252;52.540;13.290;2024-03-23T12:07:17;20.30;95.50
6439;DHT22;3252;52.540;13.290;2024-03-23T12:09:19;20.40;95.50
6439;DHT22;3252;52.540;13.290;2024-03-23T12:11:22;20.40;95.50
6439;DHT22;3252;52.540;13.290;2024-03-23T12:13:25;20.40;95.50
6439;DHT22;3252;52.540;13.290;2024-03-23T12:15:27;20.40;95.50
6439;DHT22;3252;52.540;13.290;2024-03-23T12:17:30;20.40;95.50
6439;DHT22;3252;52.540;13.290;2024-03-23T12:19:31;20.40;95.60
6439;DHT22;3252;52.540;13.290;2024-03-23T12:21:32;20.40;95.60
6439;DHT22;3252;52.540;13.290;2024-03-23T12:23:35;20.40;95.70
6439;DHT22;3252;52.540;13.290;2024-03-23T12:25:36;20.40;95.70
6439;DHT22;3252;52.540;13.290;2024-03-23T12:27:39;20.40;95.70
6439;DHT22;3252;52.540;13.290;2024-03-23T12:29:40;20.40;95.70
6439;DHT22;3252;52.540;13.290;2024-03-23T12:31:44;20.40;95.70
6439;DHT22;3252;52.540;13.290;2024-03-23T12:33:45;20.40;95.70
6439;DHT22;3252;52.540;13.290;2024-03-23T12:35:47;20.40;95.70
6439;DHT22;3252;52.540;13.290;2024-03-23T12:37:48;20.40;95.80
6439;DHT22;3252;52.540;13.290;2024-03-23T12:39:49;20.40;95.80
6439;DHT22;3252;52.540;13.290;2024-03-23T12:41:50;20.40;95.80
6439;DHT22;3252;52.540;13.290;2024-03-23T12:43:55;20.40;95.80
6439;DHT22;3252;52.540;13.290;2024-03-23T12:45:55;20.50;95.90
6439;DHT22;3252;52.540;13.290;2024-03-23T12:47:57;20.40;95.90
6439;DHT22;3252;52.540;13.290;2024-03-23T12:49:58;20.40;95.90
6439;DHT22;3252;52.540;13.290;2024-03-23T12:51:59;20.50;95.90
6439;DHT22;3252;52.540;13.290;2024-03-23T12:54:02;20.50;95.90
6439;DHT22;3252;52.540;13.290;2024-03-23T12:56:03;20.50;95.90
6439;DHT22;3252;52.540;13.290;2024-03-23T12:58:06;20.50;96.00
6439;DHT22;3252;52.540;13.290;2024-03-23T13:00:10;20.50;96.00
6439;DHT22;3252;52.540;13.290;2024-03-23T13:03:01;20.50;96.20
6439;DHT22;3252;52.540;13.290;2024-03-23T13:05:06;20.50;96.20
6439;DHT22;3252;52.540;13.290;2024-03-23T13:07:08;20.50;96.40
6439;DHT22;3252;52.540;13.290;2024-03-23T13:09:10;20.50;96.50
6439;DHT22;3252;52.540;13.290;2024-03-23T13:11:11;20.50;96.70
6439;DHT22;3252;52.540;13.290;2024-03-23T13:13:13;20.50;96.80
6439;DHT22;3252;52.540;13.290;2024-03-23T13:15:16;20.50;96.90
6439;DHT22;3252;52.540;13.290;2024-03-23T13:17:20;20.50;96.90
6439;DHT22;3252;52.540;13.290;2024-03-23T13:19:21;20.50;97.00
6439;DHT22;3252;52.540;13.290;2024-03-23T13:21:27;20.50;97.10
6439;DHT22;3252;52.540;13.290;2024-03-23T13:23:29;20.60;97.20
6439;DHT22;3252;52.540;13.290;2024-03-23T13:25:31;20.50;97.20
6439;DHT22;3252;52.540;13.290;2024-03-23T13:27:34;20.60;97.30
6439;DHT22;3252;52.540;13.290;2024-03-23T13:29:35;20.60;97.30
6439;DHT22;3252;52.540;13.290;2024-03-23T13:31:39;20.60;97.40
6439;DHT22;3252;52.540;13.290;2024-03-23T13:33:40;20.60;97.40
6439;DHT22;3252;52.540;13.290;2024-03-23T13:35:49;20.60;97.40
6439;DHT22;3252;52.540;13.290;2024-03-23T13:37:50;20.60;97.40
6439;DHT22;3252;52.540;13.290;2024-03-23T13:39:52;20.60;97.40
6439;DHT22;3252;52.540;13.290;2024-03-23T13:41:54;20.60;97.40
6439;DHT22;3252;52.540;13.290;2024-03-23T13:43:56;20.60;97.40
6439;DHT22;3252;52.540;13.290;2024-03-23T13:45:58;20.60;97.40
6439;DHT22;3252;52.540;13.290;2024-03-23T13:48:02;20.60;97.50
6439;DHT22;3252;52.540;13.290;2024-03-23T13:50:05;20.60;97.50
6439;DHT22;3252;52.540;13.290;2024-03-23T13:52:08;20.60;97.50
6439;DHT22;3252;52.540;13.290;2024-03-23T13:54:09;20.60;97.50
6439;DHT22;3252;52.540;13.290;2024-03-23T13:56:13;20.60;97.50
6439;DHT22;3252;52.540;13.290;2024-03-23T13:58:14;20.60;97.60
6439;DHT22;3252;52.540;13.290;2024-03-23T14:00:15;20.60;97.60